sensor_id;sensor_type;location;lat;lon;timestamp;temperature;humidity
65478;SHT31;53678;39.642;22.430;2023-10-09T00:00:50;19.55;73.50
65478;SHT31;53678;39.642;22.430;2023-10-09T00:03:19;19.53;73.22
65478;SHT31;53678;39.642;22.430;2023-10-09T00:05:49;19.54;73.44
65478;SHT31;53678;39.642;22.430;2023-10-09T00:08:18;19.14;75.40
65478;SHT31;53678;39.642;22.430;2023-10-09T00:10:50;18.97;76.94
65478;SHT31;53678;39.642;22.430;2023-10-09T00:13:21;18.75;78.33
65478;SHT31;53678;39.642;22.430;2023-10-09T00:15:53;18.56;79.55
65478;SHT31;53678;39.642;22.430;2023-10-09T00:18:23;18.68;79.75
65478;SHT31;53678;39.642;22.430;2023-10-09T00:20:57;18.65;79.53
65478;SHT31;53678;39.642;22.430;2023-10-09T00:23:36;18.48;80.26
65478;SHT31;53678;39.642;22.430;2023-10-09T00:26:02;18.63;79.29
65478;SHT31;53678;39.642;22.430;2023-10-09T00:28:50;18.37;80.21
65478;SHT31;53678;39.642;22.430;2023-10-09T00:31:20;18.35;80.13
65478;SHT31;53678;39.642;22.430;2023-10-09T00:34:01;18.49;79.75
65478;SHT31;53678;39.642;22.430;2023-10-09T00:36:29;18.58;78.03
65478;SHT31;53678;39.642;22.430;2023-10-09T00:38:55;18.24;80.18
65478;SHT31;53678;39.642;22.430;2023-10-09T00:41:20;17.93;82.43
65478;SHT31;53678;39.642;22.430;2023-10-09T00:43:48;18.11;80.64
65478;SHT31;53678;39.642;22.430;2023-10-09T00:46:16;18.20;79.33
65478;SHT31;53678;39.642;22.430;2023-10-09T00:48:58;18.38;78.62
65478;SHT31;53678;39.642;22.430;2023-10-09T00:51:29;18.41;78.47
65478;SHT31;53678;39.642;22.430;2023-10-09T00:54:02;18.53;77.31
65478;SHT31;53678;39.642;22.430;2023-10-09T00:56:48;18.69;75.96
65478;SHT31;53678;39.642;22.430;2023-10-09T00:59:24;18.86;74.95
65478;SHT31;53678;39.642;22.430;2023-10-09T01:01:50;18.83;74.95
65478;SHT31;53678;39.642;22.430;2023-10-09T01:04:30;18.85;75.22
65478;SHT31;53678;39.642;22.430;2023-10-09T01:07:04;19.16;73.25
65478;SHT31;53678;39.642;22.430;2023-10-09T01:09:56;19.20;73.34
65478;SHT31;53678;39.642;22.430;2023-10-09T01:12:22;18.93;73.87
65478;SHT31;53678;39.642;22.430;2023-10-09T01:14:48;18.90;74.26
65478;SHT31;53678;39.642;22.430;2023-10-09T01:17:18;18.89;74.66
65478;SHT31;53678;39.642;22.430;2023-10-09T01:19:56;18.93;74.35
65478;SHT31;53678;39.642;22.430;2023-10-09T01:22:23;18.95;74.13
65478;SHT31;53678;39.642;22.430;2023-10-09T01:24:48;18.93;73.80
65478;SHT31;53678;39.642;22.430;2023-10-09T01:27:16;19.20;73.56
65478;SHT31;53678;39.642;22.430;2023-10-09T01:29:42;19.21;73.35
65478;SHT31;53678;39.642;22.430;2023-10-09T01:32:09;19.23;73.14
65478;SHT31;53678;39.642;22.430;2023-10-09T01:34:42;19.23;73.12
65478;SHT31;53678;39.642;22.430;2023-10-09T01:37:11;19.18;72.94
65478;SHT31;53678;39.642;22.430;2023-10-09T01:39:42;18.72;75.32
65478;SHT31;53678;39.642;22.430;2023-10-09T01:42:08;18.93;73.87
65478;SHT31;53678;39.642;22.430;2023-10-09T01:44:35;19.04;72.55
65478;SHT31;53678;39.642;22.430;2023-10-09T01:47:02;19.00;73.10
65478;SHT31;53678;39.642;22.430;2023-10-09T01:49:37;19.09;72.76
65478;SHT31;53678;39.642;22.430;2023-10-09T01:52:07;19.28;71.63
65478;SHT31;53678;39.642;22.430;2023-10-09T01:54:38;19.38;70.68
65478;SHT31;53678;39.642;22.430;2023-10-09T01:57:07;19.04;72.83
65478;SHT31;53678;39.642;22.430;2023-10-09T01:59:43;19.11;72.56
65478;SHT31;53678;39.642;22.430;2023-10-09T02:02:13;19.17;72.66
65478;SHT31;53678;39.642;22.430;2023-10-09T02:05:05;18.89;73.54
65478;SHT31;53678;39.642;22.430;2023-10-09T02:07:51;18.92;73.01
65478;SHT31;53678;39.642;22.430;2023-10-09T02:10:21;18.99;72.71
65478;SHT31;53678;39.642;22.430;2023-10-09T02:12:56;18.80;73.59
65478;SHT31;53678;39.642;22.430;2023-10-09T02:15:26;18.83;73.20
65478;SHT31;53678;39.642;22.430;2023-10-09T02:18:13;18.86;73.26
65478;SHT31;53678;39.642;22.430;2023-10-09T02:20:50;18.92;72.76
65478;SHT31;53678;39.642;22.430;2023-10-09T02:23:30;18.77;74.03
65478;SHT31;53678;39.642;22.430;2023-10-09T02:26:09;18.76;73.89
65478;SHT31;53678;39.642;22.430;2023-10-09T02:28:36;18.73;74.34
65478;SHT31;53678;39.642;22.430;2023-10-09T02:31:11;18.60;75.26
65478;SHT31;53678;39.642;22.430;2023-10-09T02:33:38;18.37;77.03
65478;SHT31;53678;39.642;22.430;2023-10-09T02:36:05;18.35;77.28
65478;SHT31;53678;39.642;22.430;2023-10-09T02:38:32;17.97;79.09
65478;SHT31;53678;39.642;22.430;2023-10-09T02:41:03;18.12;77.27
65478;SHT31;53678;39.642;22.430;2023-10-09T02:43:30;18.21;76.77
65478;SHT31;53678;39.642;22.430;2023-10-09T02:46:17;18.27;76.63
65478;SHT31;53678;39.642;22.430;2023-10-09T02:48:48;18.34;75.57
65478;SHT31;53678;39.642;22.430;2023-10-09T02:51:20;18.45;74.82
65478;SHT31;53678;39.642;22.430;2023-10-09T02:53:56;18.27;75.98
65478;SHT31;53678;39.642;22.430;2023-10-09T02:56:25;18.20;77.23
65478;SHT31;53678;39.642;22.430;2023-10-09T02:59:11;18.18;77.70
65478;SHT31;53678;39.642;22.430;2023-10-09T03:01:40;18.20;77.47
65478;SHT31;53678;39.642;22.430;2023-10-09T03:04:09;18.15;77.49
65478;SHT31;53678;39.642;22.430;2023-10-09T03:06:41;17.93;78.29
65478;SHT31;53678;39.642;22.430;2023-10-09T03:09:20;17.89;78.79
65478;SHT31;53678;39.642;22.430;2023-10-09T03:14:30;17.79;79.22
65478;SHT31;53678;39.642;22.430;2023-10-09T03:16:57;17.84;78.60
65478;SHT31;53678;39.642;22.430;2023-10-09T03:19:27;17.81;77.94
65478;SHT31;53678;39.642;22.430;2023-10-09T03:21:54;17.97;77.25
65478;SHT31;53678;39.642;22.430;2023-10-09T03:24:25;18.02;77.02
65478;SHT31;53678;39.642;22.430;2023-10-09T03:26:53;18.20;76.70
65478;SHT31;53678;39.642;22.430;2023-10-09T03:29:22;17.89;77.65
65478;SHT31;53678;39.642;22.430;2023-10-09T03:31:48;17.94;77.48
65478;SHT31;53678;39.642;22.430;2023-10-09T03:34:16;17.94;77.47
65478;SHT31;53678;39.642;22.430;2023-10-09T03:36:42;17.96;77.10
65478;SHT31;53678;39.642;22.430;2023-10-09T03:39:09;18.04;76.33
65478;SHT31;53678;39.642;22.430;2023-10-09T03:41:58;17.94;77.43
65478;SHT31;53678;39.642;22.430;2023-10-09T03:44:24;17.86;78.01
65478;SHT31;53678;39.642;22.430;2023-10-09T03:46:54;17.70;78.25
65478;SHT31;53678;39.642;22.430;2023-10-09T03:49:19;17.80;78.21
65478;SHT31;53678;39.642;22.430;2023-10-09T03:51:52;17.79;78.24
65478;SHT31;53678;39.642;22.430;2023-10-09T03:54:23;17.81;78.43
65478;SHT31;53678;39.642;22.430;2023-10-09T03:56:50;17.35;80.45
65478;SHT31;53678;39.642;22.430;2023-10-09T03:59:20;17.40;79.66
65478;SHT31;53678;39.642;22.430;2023-10-09T04:01:49;17.36;79.84
65478;SHT31;53678;39.642;22.430;2023-10-09T04:04:17;17.11;80.40
65478;SHT31;53678;39.642;22.430;2023-10-09T04:06:42;17.16;80.33
65478;SHT31;53678;39.642;22.430;2023-10-09T04:09:11;17.25;79.94
65478;SHT31;53678;39.642;22.430;2023-10-09T04:11:47;17.19;80.29
65478;SHT31;53678;39.642;22.430;2023-10-09T04:14:16;17.26;80.42
65478;SHT31;53678;39.642;22.430;2023-10-09T04:16:58;17.35;79.76
65478;SHT31;53678;39.642;22.430;2023-10-09T04:19:53;16.95;81.60
65478;SHT31;53678;39.642;22.430;2023-10-09T04:22:38;17.15;80.60
65478;SHT31;53678;39.642;22.430;2023-10-09T04:25:20;16.92;80.75
65478;SHT31;53678;39.642;22.430;2023-10-09T04:28:02;17.14;80.65
65478;SHT31;53678;39.642;22.430;2023-10-09T04:30:41;17.10;80.58
65478;SHT31;53678;39.642;22.430;2023-10-09T04:33:15;17.16;80.28
65478;SHT31;53678;39.642;22.430;2023-10-09T04:36:03;17.18;80.55
65478;SHT31;53678;39.642;22.430;2023-10-09T04:38:48;17.29;79.72
65478;SHT31;53678;39.642;22.430;2023-10-09T04:41:33;17.14;80.66
65478;SHT31;53678;39.642;22.430;2023-10-09T04:44:00;17.10;80.87
65478;SHT31;53678;39.642;22.430;2023-10-09T04:46:47;17.29;80.35
65478;SHT31;53678;39.642;22.430;2023-10-09T04:49:32;17.46;80.35
65478;SHT31;53678;39.642;22.430;2023-10-09T04:52:17;17.56;79.39
65478;SHT31;53678;39.642;22.430;2023-10-09T04:54:58;17.70;79.17
65478;SHT31;53678;39.642;22.430;2023-10-09T04:57:38;18.02;77.63
65478;SHT31;53678;39.642;22.430;2023-10-09T05:00:19;18.83;75.64
65478;SHT31;53678;39.642;22.430;2023-10-09T05:02:51;19.48;74.48
65478;SHT31;53678;39.642;22.430;2023-10-09T05:05:28;19.62;72.91
65478;SHT31;53678;39.642;22.430;2023-10-09T05:08:10;19.67;73.30
65478;SHT31;53678;39.642;22.430;2023-10-09T05:10:57;19.46;74.88
65478;SHT31;53678;39.642;22.430;2023-10-09T05:13:26;19.41;73.96
65478;SHT31;53678;39.642;22.430;2023-10-09T05:18:30;19.44;73.48
65478;SHT31;53678;39.642;22.430;2023-10-09T05:21:03;19.17;74.25
65478;SHT31;53678;39.642;22.430;2023-10-09T05:23:38;19.03;75.62
65478;SHT31;53678;39.642;22.430;2023-10-09T05:26:17;19.11;75.43
65478;SHT31;53678;39.642;22.430;2023-10-09T05:29:03;19.21;74.60
65478;SHT31;53678;39.642;22.430;2023-10-09T05:31:48;19.21;75.02
65478;SHT31;53678;39.642;22.430;2023-10-09T05:34:34;19.28;73.92
65478;SHT31;53678;39.642;22.430;2023-10-09T05:37:02;19.38;73.88
65478;SHT31;53678;39.642;22.430;2023-10-09T05:39:55;19.53;72.14
65478;SHT31;53678;39.642;22.430;2023-10-09T05:42:31;19.74;72.55
65478;SHT31;53678;39.642;22.430;2023-10-09T05:45:17;19.74;73.17
65478;SHT31;53678;39.642;22.430;2023-10-09T05:47:53;19.85;73.03
65478;SHT31;53678;39.642;22.430;2023-10-09T05:50:24;19.88;71.50
65478;SHT31;53678;39.642;22.430;2023-10-09T05:52:51;20.33;70.33
65478;SHT31;53678;39.642;22.430;2023-10-09T05:55:17;21.52;67.70
65478;SHT31;53678;39.642;22.430;2023-10-09T05:57:55;23.40;62.99
65478;SHT31;53678;39.642;22.430;2023-10-09T06:00:22;24.64;59.57
65478;SHT31;53678;39.642;22.430;2023-10-09T06:03:06;24.94;57.98
65478;SHT31;53678;39.642;22.430;2023-10-09T06:05:45;25.80;56.32
65478;SHT31;53678;39.642;22.430;2023-10-09T06:08:31;26.66;54.04
65478;SHT31;53678;39.642;22.430;2023-10-09T06:11:13;27.54;52.56
65478;SHT31;53678;39.642;22.430;2023-10-09T06:13:59;28.09;50.90
65478;SHT31;53678;39.642;22.430;2023-10-09T06:16:39;27.38;51.46
65478;SHT31;53678;39.642;22.430;2023-10-09T06:19:05;25.91;54.42
65478;SHT31;53678;39.642;22.430;2023-10-09T06:21:40;25.93;53.73
65478;SHT31;53678;39.642;22.430;2023-10-09T06:24:19;24.49;56.55
65478;SHT31;53678;39.642;22.430;2023-10-09T06:26:46;23.37;59.30
65478;SHT31;53678;39.642;22.430;2023-10-09T06:29:30;22.63;61.07
65478;SHT31;53678;39.642;22.430;2023-10-09T06:32:03;22.28;62.32
65478;SHT31;53678;39.642;22.430;2023-10-09T06:34:48;22.47;62.16
65478;SHT31;53678;39.642;22.430;2023-10-09T06:37:21;23.04;61.09
65478;SHT31;53678;39.642;22.430;2023-10-09T06:39:55;23.10;60.82
65478;SHT31;53678;39.642;22.430;2023-10-09T06:42:30;22.86;61.74
65478;SHT31;53678;39.642;22.430;2023-10-09T06:45:02;22.73;61.75
65478;SHT31;53678;39.642;22.430;2023-10-09T06:47:33;22.58;61.75
65478;SHT31;53678;39.642;22.430;2023-10-09T06:50:09;22.45;61.87
65478;SHT31;53678;39.642;22.430;2023-10-09T06:52:51;22.38;62.08
65478;SHT31;53678;39.642;22.430;2023-10-09T06:55:23;22.59;61.97
65478;SHT31;53678;39.642;22.430;2023-10-09T06:58:03;22.59;62.20
65478;SHT31;53678;39.642;22.430;2023-10-09T07:00:39;22.95;62.50
65478;SHT31;53678;39.642;22.430;2023-10-09T07:03:20;23.03;62.35
65478;SHT31;53678;39.642;22.430;2023-10-09T07:06:10;22.96;62.02
65478;SHT31;53678;39.642;22.430;2023-10-09T07:08:56;23.06;62.93
65478;SHT31;53678;39.642;22.430;2023-10-09T07:11:35;22.51;63.51
65478;SHT31;53678;39.642;22.430;2023-10-09T07:14:17;23.02;63.13
65478;SHT31;53678;39.642;22.430;2023-10-09T07:16:56;23.10;63.52
65478;SHT31;53678;39.642;22.430;2023-10-09T07:19:45;23.30;62.98
65478;SHT31;53678;39.642;22.430;2023-10-09T07:22:11;23.18;63.86
65478;SHT31;53678;39.642;22.430;2023-10-09T07:24:43;23.23;63.96
65478;SHT31;53678;39.642;22.430;2023-10-09T07:27:09;22.20;66.05
65478;SHT31;53678;39.642;22.430;2023-10-09T07:29:39;22.25;66.94
65478;SHT31;53678;39.642;22.430;2023-10-09T07:32:15;23.27;63.99
65478;SHT31;53678;39.642;22.430;2023-10-09T07:34:46;24.19;61.59
65478;SHT31;53678;39.642;22.430;2023-10-09T07:37:20;24.34;60.15
65478;SHT31;53678;39.642;22.430;2023-10-09T07:39:50;24.20;59.98
65478;SHT31;53678;39.642;22.430;2023-10-09T07:42:35;24.12;60.18
65478;SHT31;53678;39.642;22.430;2023-10-09T07:45:10;24.14;59.77
65478;SHT31;53678;39.642;22.430;2023-10-09T07:47:46;24.34;59.15
65478;SHT31;53678;39.642;22.430;2023-10-09T07:50:27;25.04;57.96
65478;SHT31;53678;39.642;22.430;2023-10-09T07:53:16;25.54;56.58
65478;SHT31;53678;39.642;22.430;2023-10-09T07:55:53;26.01;55.81
65478;SHT31;53678;39.642;22.430;2023-10-09T07:58:32;26.42;54.96
65478;SHT31;53678;39.642;22.430;2023-10-09T08:01:15;26.68;54.20
65478;SHT31;53678;39.642;22.430;2023-10-09T08:03:42;26.87;53.57
65478;SHT31;53678;39.642;22.430;2023-10-09T08:06:14;26.97;53.23
65478;SHT31;53678;39.642;22.430;2023-10-09T08:08:58;27.10;52.85
65478;SHT31;53678;39.642;22.430;2023-10-09T08:11:43;27.10;52.69
65478;SHT31;53678;39.642;22.430;2023-10-09T08:14:29;27.11;52.69
65478;SHT31;53678;39.642;22.430;2023-10-09T08:17:00;27.27;53.17
65478;SHT31;53678;39.642;22.430;2023-10-09T08:19:47;27.31;52.87
65478;SHT31;53678;39.642;22.430;2023-10-09T08:22:28;27.44;51.70
65478;SHT31;53678;39.642;22.430;2023-10-09T08:24:55;27.45;51.67
65478;SHT31;53678;39.642;22.430;2023-10-09T08:27:29;27.24;51.43
65478;SHT31;53678;39.642;22.430;2023-10-09T08:30:05;26.99;50.63
65478;SHT31;53678;39.642;22.430;2023-10-09T08:32:48;26.66;51.49
65478;SHT31;53678;39.642;22.430;2023-10-09T08:35:29;26.87;50.40
65478;SHT31;53678;39.642;22.430;2023-10-09T08:38:00;26.76;50.93
65478;SHT31;53678;39.642;22.430;2023-10-09T08:40:34;26.90;49.55
65478;SHT31;53678;39.642;22.430;2023-10-09T08:45:45;26.95;48.89
65478;SHT31;53678;39.642;22.430;2023-10-09T08:48:13;26.83;49.81
65478;SHT31;53678;39.642;22.430;2023-10-09T08:50:45;26.83;50.17
65478;SHT31;53678;39.642;22.430;2023-10-09T08:53:15;26.58;49.67
65478;SHT31;53678;39.642;22.430;2023-10-09T08:55:42;26.69;49.87
65478;SHT31;53678;39.642;22.430;2023-10-09T08:58:09;26.69;49.94
65478;SHT31;53678;39.642;22.430;2023-10-09T09:00:53;26.52;51.55
65478;SHT31;53678;39.642;22.430;2023-10-09T09:03:21;26.00;49.32
65478;SHT31;53678;39.642;22.430;2023-10-09T09:05:57;26.46;49.89
65478;SHT31;53678;39.642;22.430;2023-10-09T09:08:27;26.31;49.10
65478;SHT31;53678;39.642;22.430;2023-10-09T09:11:00;26.48;49.98
65478;SHT31;53678;39.642;22.430;2023-10-09T09:14:06;26.58;50.66
65478;SHT31;53678;39.642;22.430;2023-10-09T09:16:40;26.35;50.68
65478;SHT31;53678;39.642;22.430;2023-10-09T09:19:10;26.21;51.25
65478;SHT31;53678;39.642;22.430;2023-10-09T09:21:49;26.27;51.08
65478;SHT31;53678;39.642;22.430;2023-10-09T09:24:20;26.08;51.48
65478;SHT31;53678;39.642;22.430;2023-10-09T09:26:50;26.14;51.28
65478;SHT31;53678;39.642;22.430;2023-10-09T09:32:10;25.98;51.12
65478;SHT31;53678;39.642;22.430;2023-10-09T09:34:54;26.00;50.86
65478;SHT31;53678;39.642;22.430;2023-10-09T09:37:22;26.02;51.14
65478;SHT31;53678;39.642;22.430;2023-10-09T09:40:01;26.24;51.73
65478;SHT31;53678;39.642;22.430;2023-10-09T09:42:37;25.79;52.50
65478;SHT31;53678;39.642;22.430;2023-10-09T09:45:04;26.14;52.88
65478;SHT31;53678;39.642;22.430;2023-10-09T09:47:31;26.38;51.48
65478;SHT31;53678;39.642;22.430;2023-10-09T09:50:01;26.56;50.80
65478;SHT31;53678;39.642;22.430;2023-10-09T09:52:38;26.52;50.35
65478;SHT31;53678;39.642;22.430;2023-10-09T09:55:06;26.01;50.47
65478;SHT31;53678;39.642;22.430;2023-10-09T09:57:40;25.81;50.12
65478;SHT31;53678;39.642;22.430;2023-10-09T10:00:09;26.20;50.79
65478;SHT31;53678;39.642;22.430;2023-10-09T10:02:56;26.17;50.15
65478;SHT31;53678;39.642;22.430;2023-10-09T10:05:25;26.07;49.42
65478;SHT31;53678;39.642;22.430;2023-10-09T10:07:58;26.68;50.39
65478;SHT31;53678;39.642;22.430;2023-10-09T10:10:40;26.49;50.50
65478;SHT31;53678;39.642;22.430;2023-10-09T10:16:11;26.55;51.17
65478;SHT31;53678;39.642;22.430;2023-10-09T10:18:59;26.63;50.36
65478;SHT31;53678;39.642;22.430;2023-10-09T10:21:29;26.31;52.04
65478;SHT31;53678;39.642;22.430;2023-10-09T10:23:59;26.52;51.67
65478;SHT31;53678;39.642;22.430;2023-10-09T10:26:36;26.60;51.23
65478;SHT31;53678;39.642;22.430;2023-10-09T10:29:20;26.60;50.15
65478;SHT31;53678;39.642;22.430;2023-10-09T10:31:53;26.52;49.87
65478;SHT31;53678;39.642;22.430;2023-10-09T10:34:25;26.62;50.13
65478;SHT31;53678;39.642;22.430;2023-10-09T10:36:52;26.69;50.59
65478;SHT31;53678;39.642;22.430;2023-10-09T10:39:26;26.59;50.38
65478;SHT31;53678;39.642;22.430;2023-10-09T10:42:14;26.85;50.80
65478;SHT31;53678;39.642;22.430;2023-10-09T10:45:00;26.79;49.98
65478;SHT31;53678;39.642;22.430;2023-10-09T10:47:32;26.93;49.73
65478;SHT31;53678;39.642;22.430;2023-10-09T10:50:02;26.65;50.01
65478;SHT31;53678;39.642;22.430;2023-10-09T10:53:11;26.49;50.52
65478;SHT31;53678;39.642;22.430;2023-10-09T10:55:53;26.93;50.65
65478;SHT31;53678;39.642;22.430;2023-10-09T10:58:22;27.00;50.02
65478;SHT31;53678;39.642;22.430;2023-10-09T11:00:54;26.99;50.49
65478;SHT31;53678;39.642;22.430;2023-10-09T11:03:25;27.16;50.77
65478;SHT31;53678;39.642;22.430;2023-10-09T11:06:09;27.10;50.28
65478;SHT31;53678;39.642;22.430;2023-10-09T11:08:47;26.89;49.48
65478;SHT31;53678;39.642;22.430;2023-10-09T11:11:20;26.93;49.57
65478;SHT31;53678;39.642;22.430;2023-10-09T11:13:46;27.07;50.25
65478;SHT31;53678;39.642;22.430;2023-10-09T11:16:19;27.03;50.24
65478;SHT31;53678;39.642;22.430;2023-10-09T11:19:11;26.85;49.44
65478;SHT31;53678;39.642;22.430;2023-10-09T11:21:53;26.73;49.78
65478;SHT31;53678;39.642;22.430;2023-10-09T11:24:32;26.96;49.30
65478;SHT31;53678;39.642;22.430;2023-10-09T11:27:05;26.89;50.03
65478;SHT31;53678;39.642;22.430;2023-10-09T11:29:33;26.75;50.32
65478;SHT31;53678;39.642;22.430;2023-10-09T11:32:09;26.60;50.44
65478;SHT31;53678;39.642;22.430;2023-10-09T11:34:48;26.99;50.46
65478;SHT31;53678;39.642;22.430;2023-10-09T11:37:21;26.99;49.33
65478;SHT31;53678;39.642;22.430;2023-10-09T11:40:00;26.92;49.02
65478;SHT31;53678;39.642;22.430;2023-10-09T11:42:29;26.93;49.80
65478;SHT31;53678;39.642;22.430;2023-10-09T11:45:05;26.89;50.06
65478;SHT31;53678;39.642;22.430;2023-10-09T11:47:51;26.83;50.93
65478;SHT31;53678;39.642;22.430;2023-10-09T11:50:45;27.03;51.81
65478;SHT31;53678;39.642;22.430;2023-10-09T11:53:21;26.89;51.27
65478;SHT31;53678;39.642;22.430;2023-10-09T11:55:50;26.71;50.43
65478;SHT31;53678;39.642;22.430;2023-10-09T11:58:19;26.75;50.89
65478;SHT31;53678;39.642;22.430;2023-10-09T12:00:51;26.78;51.15
65478;SHT31;53678;39.642;22.430;2023-10-09T12:03:26;26.60;50.44
65478;SHT31;53678;39.642;22.430;2023-10-09T12:06:02;26.59;50.36
65478;SHT31;53678;39.642;22.430;2023-10-09T12:08:31;26.59;50.52
65478;SHT31;53678;39.642;22.430;2023-10-09T12:10:58;26.60;51.42
65478;SHT31;53678;39.642;22.430;2023-10-09T12:13:25;26.53;51.02
65478;SHT31;53678;39.642;22.430;2023-10-09T12:15:52;26.41;50.86
65478;SHT31;53678;39.642;22.430;2023-10-09T12:18:20;26.31;51.44
65478;SHT31;53678;39.642;22.430;2023-10-09T12:20:46;26.35;50.91
65478;SHT31;53678;39.642;22.430;2023-10-09T12:23:19;26.44;51.35
65478;SHT31;53678;39.642;22.430;2023-10-09T12:25:48;26.65;51.08
65478;SHT31;53678;39.642;22.430;2023-10-09T12:28:15;26.46;50.72
65478;SHT31;53678;39.642;22.430;2023-10-09T12:30:41;26.38;51.14
65478;SHT31;53678;39.642;22.430;2023-10-09T12:33:08;26.29;51.39
65478;SHT31;53678;39.642;22.430;2023-10-09T12:35:38;26.38;51.71
65478;SHT31;53678;39.642;22.430;2023-10-09T12:38:05;26.29;51.33
65478;SHT31;53678;39.642;22.430;2023-10-09T12:40:35;26.36;51.17
65478;SHT31;53678;39.642;22.430;2023-10-09T12:43:01;26.22;51.05
65478;SHT31;53678;39.642;22.430;2023-10-09T12:45:27;26.17;51.32
65478;SHT31;53678;39.642;22.430;2023-10-09T12:48:00;26.27;51.30
65478;SHT31;53678;39.642;22.430;2023-10-09T12:50:29;26.15;51.18
65478;SHT31;53678;39.642;22.430;2023-10-09T12:53:00;25.90;50.89
65478;SHT31;53678;39.642;22.430;2023-10-09T12:55:40;25.84;51.86
65478;SHT31;53678;39.642;22.430;2023-10-09T12:58:08;25.67;51.18
65478;SHT31;53678;39.642;22.430;2023-10-09T13:00:36;25.36;51.59
65478;SHT31;53678;39.642;22.430;2023-10-09T13:03:06;25.59;51.75
65478;SHT31;53678;39.642;22.430;2023-10-09T13:05:50;25.39;51.75
65478;SHT31;53678;39.642;22.430;2023-10-09T13:08:24;25.39;52.55
65478;SHT31;53678;39.642;22.430;2023-10-09T13:10:51;25.26;52.61
65478;SHT31;53678;39.642;22.430;2023-10-09T13:13:30;25.11;52.97
65478;SHT31;53678;39.642;22.430;2023-10-09T13:16:19;25.16;53.01
65478;SHT31;53678;39.642;22.430;2023-10-09T13:18:57;25.36;53.92
65478;SHT31;53678;39.642;22.430;2023-10-09T13:21:27;25.33;53.90
65478;SHT31;53678;39.642;22.430;2023-10-09T13:23:58;25.28;55.50
65478;SHT31;53678;39.642;22.430;2023-10-09T13:26:25;25.11;55.72
65478;SHT31;53678;39.642;22.430;2023-10-09T13:28:56;25.08;57.24
65478;SHT31;53678;39.642;22.430;2023-10-09T13:31:23;25.01;57.98
65478;SHT31;53678;39.642;22.430;2023-10-09T13:33:53;24.94;57.58
65478;SHT31;53678;39.642;22.430;2023-10-09T13:36:27;24.99;57.59
65478;SHT31;53678;39.642;22.430;2023-10-09T13:38:54;24.92;57.53
65478;SHT31;53678;39.642;22.430;2023-10-09T13:41:21;24.82;57.99
65478;SHT31;53678;39.642;22.430;2023-10-09T13:43:47;24.78;58.79
65478;SHT31;53678;39.642;22.430;2023-10-09T13:46:13;24.91;59.06
65478;SHT31;53678;39.642;22.430;2023-10-09T13:48:43;24.88;59.46
65478;SHT31;53678;39.642;22.430;2023-10-09T13:51:11;24.90;59.14
65478;SHT31;53678;39.642;22.430;2023-10-09T13:53:43;24.82;59.21
65478;SHT31;53678;39.642;22.430;2023-10-09T13:56:19;24.90;60.33
65478;SHT31;53678;39.642;22.430;2023-10-09T13:58:49;24.85;61.91
65478;SHT31;53678;39.642;22.430;2023-10-09T14:01:17;24.91;62.78
65478;SHT31;53678;39.642;22.430;2023-10-09T14:03:57;24.60;64.04
65478;SHT31;53678;39.642;22.430;2023-10-09T14:06:27;24.61;64.17
65478;SHT31;53678;39.642;22.430;2023-10-09T14:09:00;24.56;63.95
65478;SHT31;53678;39.642;22.430;2023-10-09T14:11:35;24.68;64.38
65478;SHT31;53678;39.642;22.430;2023-10-09T14:14:04;24.60;64.73
65478;SHT31;53678;39.642;22.430;2023-10-09T14:16:38;24.56;64.93
65478;SHT31;53678;39.642;22.430;2023-10-09T14:19:08;24.37;65.92
65478;SHT31;53678;39.642;22.430;2023-10-09T14:21:39;24.33;66.19
65478;SHT31;53678;39.642;22.430;2023-10-09T14:24:07;24.29;66.69
65478;SHT31;53678;39.642;22.430;2023-10-09T14:26:43;24.39;66.20
65478;SHT31;53678;39.642;22.430;2023-10-09T14:29:11;24.30;67.49
65478;SHT31;53678;39.642;22.430;2023-10-09T14:31:43;24.13;68.32
65478;SHT31;53678;39.642;22.430;2023-10-09T14:34:09;24.27;68.41
65478;SHT31;53678;39.642;22.430;2023-10-09T14:36:36;24.05;68.26
65478;SHT31;53678;39.642;22.430;2023-10-09T14:39:09;23.90;68.40
65478;SHT31;53678;39.642;22.430;2023-10-09T14:41:39;23.76;70.21
65478;SHT31;53678;39.642;22.430;2023-10-09T14:44:06;23.75;70.78
65478;SHT31;53678;39.642;22.430;2023-10-09T14:46:31;23.79;71.06
65478;SHT31;53678;39.642;22.430;2023-10-09T14:48:57;23.66;70.75
65478;SHT31;53678;39.642;22.430;2023-10-09T14:51:25;23.61;71.69
65478;SHT31;53678;39.642;22.430;2023-10-09T14:53:58;23.48;72.53
65478;SHT31;53678;39.642;22.430;2023-10-09T14:56:28;23.34;72.94
65478;SHT31;53678;39.642;22.430;2023-10-09T14:58:56;23.31;73.00
65478;SHT31;53678;39.642;22.430;2023-10-09T15:01:22;23.31;73.17
65478;SHT31;53678;39.642;22.430;2023-10-09T15:03:50;23.27;73.52
65478;SHT31;53678;39.642;22.430;2023-10-09T15:06:19;23.28;73.68
65478;SHT31;53678;39.642;22.430;2023-10-09T15:08:44;23.27;73.88
65478;SHT31;53678;39.642;22.430;2023-10-09T15:11:12;23.21;73.96
65478;SHT31;53678;39.642;22.430;2023-10-09T15:13:38;23.14;73.91
65478;SHT31;53678;39.642;22.430;2023-10-09T15:16:04;23.16;74.45
65478;SHT31;53678;39.642;22.430;2023-10-09T15:18:30;23.03;75.09
65478;SHT31;53678;39.642;22.430;2023-10-09T15:20:58;23.10;75.21
65478;SHT31;53678;39.642;22.430;2023-10-09T15:23:25;23.02;75.49
65478;SHT31;53678;39.642;22.430;2023-10-09T15:25:51;22.90;76.06
65478;SHT31;53678;39.642;22.430;2023-10-09T15:28:22;22.83;76.18
65478;SHT31;53678;39.642;22.430;2023-10-09T15:30:48;22.66;76.98
65478;SHT31;53678;39.642;22.430;2023-10-09T15:33:15;22.63;77.57
65478;SHT31;53678;39.642;22.430;2023-10-09T15:35:46;22.55;78.17
65478;SHT31;53678;39.642;22.430;2023-10-09T15:38:17;22.51;78.67
65478;SHT31;53678;39.642;22.430;2023-10-09T15:40:45;22.42;79.05
65478;SHT31;53678;39.642;22.430;2023-10-09T15:43:13;22.45;78.10
65478;SHT31;53678;39.642;22.430;2023-10-09T15:45:43;22.28;78.44
65478;SHT31;53678;39.642;22.430;2023-10-09T15:48:11;22.20;78.19
65478;SHT31;53678;39.642;22.430;2023-10-09T15:50:38;22.15;78.44
65478;SHT31;53678;39.642;22.430;2023-10-09T15:53:05;22.11;78.61
65478;SHT31;53678;39.642;22.430;2023-10-09T15:55:33;22.05;78.62
65478;SHT31;53678;39.642;22.430;2023-10-09T15:57:59;22.10;78.80
65478;SHT31;53678;39.642;22.430;2023-10-09T16:00:25;22.02;79.09
65478;SHT31;53678;39.642;22.430;2023-10-09T16:02:54;21.80;79.99
65478;SHT31;53678;39.642;22.430;2023-10-09T16:05:21;21.73;80.53
65478;SHT31;53678;39.642;22.430;2023-10-09T16:07:52;21.76;80.38